Stanford in the Vale, United Kingdom
Current Conditions -  °F | °C
As of 4:50 PM on Tuesday 21 Oct 2014 (Local Time) from EGVN Reporting Station
Rain Showers Rain Showers  
Wind Chill: 50°   Ceiling: Unl
Heat Index: 50°   Visibility: 6mi
Dew Point: 39°   Wind: 21mph
Humidity: 66%   Direction: 290°WNW
Pressure: 29.88"   Gusts: 32mph
Location:  51.64°N, 1.51°W
Report Text: EGVN 211550Z 29018G28KT 9999 -SHRA SCT025 SCT040 10/04 Q1012 BLU 5000 SHRA WHT
Loading
Personal Weather Stations






























Interactive Weather Map New forecast layout! Learn more

10-Day Weather Forecast

Advertisements
Track Severe Weather on mobile